sensor_id;sensor_type;location;lat;lon;timestamp;temperature;humidity
11599;DHT22;5855;48.840;9.188;2023-07-20T00:00:55;19.70;99.90
11599;DHT22;5855;48.840;9.188;2023-07-20T00:03:23;19.60;99.90
11599;DHT22;5855;48.840;9.188;2023-07-20T00:05:50;19.70;99.90
11599;DHT22;5855;48.840;9.188;2023-07-20T00:08:17;19.60;99.90
11599;DHT22;5855;48.840;9.188;2023-07-20T00:10:44;19.70;99.90
11599;DHT22;5855;48.840;9.188;2023-07-20T00:13:11;19.60;99.90
11599;DHT22;5855;48.840;9.188;2023-07-20T00:15:38;19.60;99.90
11599;DHT22;5855;48.840;9.188;2023-07-20T00:18:05;19.60;99.90
11599;DHT22;5855;48.840;9.188;2023-07-20T00:20:33;19.50;99.90
11599;DHT22;5855;48.840;9.188;2023-07-20T00:23:00;19.40;99.90
11599;DHT22;5855;48.840;9.188;2023-07-20T00:25:27;19.40;99.90
11599;DHT22;5855;48.840;9.188;2023-07-20T00:27:54;19.30;99.90
11599;DHT22;5855;48.840;9.188;2023-07-20T00:30:21;19.20;99.90
11599;DHT22;5855;48.840;9.188;2023-07-20T00:32:47;19.10;99.90
11599;DHT22;5855;48.840;9.188;2023-07-20T00:35:14;19.00;99.90
11599;DHT22;5855;48.840;9.188;2023-07-20T00:37:42;19.00;99.90
11599;DHT22;5855;48.840;9.188;2023-07-20T00:40:10;18.90;99.90
11599;DHT22;5855;48.840;9.188;2023-07-20T00:42:36;18.90;99.90
11599;DHT22;5855;48.840;9.188;2023-07-20T00:45:04;18.80;99.90
11599;DHT22;5855;48.840;9.188;2023-07-20T00:47:32;18.80;99.90
11599;DHT22;5855;48.840;9.188;2023-07-20T00:49:59;18.70;99.90
11599;DHT22;5855;48.840;9.188;2023-07-20T00:52:27;18.70;99.90
11599;DHT22;5855;48.840;9.188;2023-07-20T00:54:56;18.60;99.90
11599;DHT22;5855;48.840;9.188;2023-07-20T00:57:24;18.60;99.90
11599;DHT22;5855;48.840;9.188;2023-07-20T00:59:52;18.60;99.90
11599;DHT22;5855;48.840;9.188;2023-07-20T01:02:19;18.60;99.90
11599;DHT22;5855;48.840;9.188;2023-07-20T01:04:46;18.60;99.90
11599;DHT22;5855;48.840;9.188;2023-07-20T01:07:19;18.60;99.90
11599;DHT22;5855;48.840;9.188;2023-07-20T01:09:55;18.50;99.90
11599;DHT22;5855;48.840;9.188;2023-07-20T01:12:32;18.50;99.90
11599;DHT22;5855;48.840;9.188;2023-07-20T01:15:00;18.40;99.90
11599;DHT22;5855;48.840;9.188;2023-07-20T01:17:27;18.30;99.90
11599;DHT22;5855;48.840;9.188;2023-07-20T01:19:53;18.20;99.90
11599;DHT22;5855;48.840;9.188;2023-07-20T01:22:37;18.20;99.90
11599;DHT22;5855;48.840;9.188;2023-07-20T01:25:21;18.20;99.90
11599;DHT22;5855;48.840;9.188;2023-07-20T01:28:10;18.10;99.90
11599;DHT22;5855;48.840;9.188;2023-07-20T01:30:52;18.10;99.90
11599;DHT22;5855;48.840;9.188;2023-07-20T01:33:24;18.00;99.90
11599;DHT22;5855;48.840;9.188;2023-07-20T01:35:54;18.10;99.90
11599;DHT22;5855;48.840;9.188;2023-07-20T01:38:21;18.00;99.90
11599;DHT22;5855;48.840;9.188;2023-07-20T01:43:57;18.10;99.90
11599;DHT22;5855;48.840;9.188;2023-07-20T01:46:25;18.00;99.90
11599;DHT22;5855;48.840;9.188;2023-07-20T01:48:54;18.00;99.90
11599;DHT22;5855;48.840;9.188;2023-07-20T01:51:21;17.90;99.90
11599;DHT22;5855;48.840;9.188;2023-07-20T01:53:47;18.00;99.90
11599;DHT22;5855;48.840;9.188;2023-07-20T01:56:14;17.90;99.90
11599;DHT22;5855;48.840;9.188;2023-07-20T01:58:42;17.90;99.90
11599;DHT22;5855;48.840;9.188;2023-07-20T02:01:08;17.90;99.90
11599;DHT22;5855;48.840;9.188;2023-07-20T02:03:35;17.80;99.90
11599;DHT22;5855;48.840;9.188;2023-07-20T02:06:03;17.80;99.90
11599;DHT22;5855;48.840;9.188;2023-07-20T02:08:30;17.80;99.90
11599;DHT22;5855;48.840;9.188;2023-07-20T02:10:57;17.70;99.90
11599;DHT22;5855;48.840;9.188;2023-07-20T02:13:24;17.70;99.90
11599;DHT22;5855;48.840;9.188;2023-07-20T02:15:51;17.60;99.90
11599;DHT22;5855;48.840;9.188;2023-07-20T02:18:17;17.50;99.90
11599;DHT22;5855;48.840;9.188;2023-07-20T02:20:44;17.40;99.90
11599;DHT22;5855;48.840;9.188;2023-07-20T02:23:12;17.40;99.90
11599;DHT22;5855;48.840;9.188;2023-07-20T02:25:40;17.40;99.90
11599;DHT22;5855;48.840;9.188;2023-07-20T02:28:07;17.40;99.90
11599;DHT22;5855;48.840;9.188;2023-07-20T02:30:37;17.50;99.90
11599;DHT22;5855;48.840;9.188;2023-07-20T02:33:04;17.40;99.90
11599;DHT22;5855;48.840;9.188;2023-07-20T02:35:32;17.30;99.90
11599;DHT22;5855;48.840;9.188;2023-07-20T02:37:58;17.40;99.90
11599;DHT22;5855;48.840;9.188;2023-07-20T02:43:31;17.40;99.90
11599;DHT22;5855;48.840;9.188;2023-07-20T02:45:58;17.30;99.90
11599;DHT22;5855;48.840;9.188;2023-07-20T02:48:24;17.30;99.90
11599;DHT22;5855;48.840;9.188;2023-07-20T02:50:51;17.20;99.90
11599;DHT22;5855;48.840;9.188;2023-07-20T02:53:18;17.10;99.90
11599;DHT22;5855;48.840;9.188;2023-07-20T02:55:45;17.00;99.90
11599;DHT22;5855;48.840;9.188;2023-07-20T02:58:13;17.00;99.90
11599;DHT22;5855;48.840;9.188;2023-07-20T03:00:42;17.00;99.90
11599;DHT22;5855;48.840;9.188;2023-07-20T03:03:09;17.00;99.90
11599;DHT22;5855;48.840;9.188;2023-07-20T03:05:36;16.90;99.90
11599;DHT22;5855;48.840;9.188;2023-07-20T03:08:05;16.80;99.90
11599;DHT22;5855;48.840;9.188;2023-07-20T03:10:32;16.80;99.90
11599;DHT22;5855;48.840;9.188;2023-07-20T03:12:59;16.80;99.90
11599;DHT22;5855;48.840;9.188;2023-07-20T03:15:25;16.80;99.90
11599;DHT22;5855;48.840;9.188;2023-07-20T03:17:54;16.90;99.90
11599;DHT22;5855;48.840;9.188;2023-07-20T03:20:21;16.90;99.90
11599;DHT22;5855;48.840;9.188;2023-07-20T03:22:47;16.90;99.90
11599;DHT22;5855;48.840;9.188;2023-07-20T03:25:14;16.90;99.90
11599;DHT22;5855;48.840;9.188;2023-07-20T03:27:41;16.90;99.90
11599;DHT22;5855;48.840;9.188;2023-07-20T03:30:08;16.80;99.90
11599;DHT22;5855;48.840;9.188;2023-07-20T03:32:36;16.70;99.90
11599;DHT22;5855;48.840;9.188;2023-07-20T03:35:06;16.70;99.90
11599;DHT22;5855;48.840;9.188;2023-07-20T03:37:34;16.80;99.90
11599;DHT22;5855;48.840;9.188;2023-07-20T03:40:02;16.80;99.90
11599;DHT22;5855;48.840;9.188;2023-07-20T03:42:28;16.70;99.90
11599;DHT22;5855;48.840;9.188;2023-07-20T03:44:55;16.60;99.90
11599;DHT22;5855;48.840;9.188;2023-07-20T03:47:21;16.60;99.90
11599;DHT22;5855;48.840;9.188;2023-07-20T03:49:49;16.70;99.90
11599;DHT22;5855;48.840;9.188;2023-07-20T03:52:19;16.60;99.90
11599;DHT22;5855;48.840;9.188;2023-07-20T03:54:45;16.60;99.90
11599;DHT22;5855;48.840;9.188;2023-07-20T03:57:12;16.40;99.90
11599;DHT22;5855;48.840;9.188;2023-07-20T03:59:39;16.40;99.90
11599;DHT22;5855;48.840;9.188;2023-07-20T04:02:06;16.40;99.90
11599;DHT22;5855;48.840;9.188;2023-07-20T04:04:33;16.30;99.90
11599;DHT22;5855;48.840;9.188;2023-07-20T04:07:00;16.30;99.90
11599;DHT22;5855;48.840;9.188;2023-07-20T04:09:28;16.30;99.90
11599;DHT22;5855;48.840;9.188;2023-07-20T04:11:55;16.30;99.90
11599;DHT22;5855;48.840;9.188;2023-07-20T04:14:22;16.30;99.90
11599;DHT22;5855;48.840;9.188;2023-07-20T04:16:49;16.50;99.90
11599;DHT22;5855;48.840;9.188;2023-07-20T04:19:17;16.60;99.90
11599;DHT22;5855;48.840;9.188;2023-07-20T04:21:43;16.70;99.90
11599;DHT22;5855;48.840;9.188;2023-07-20T04:24:10;16.70;99.90
11599;DHT22;5855;48.840;9.188;2023-07-20T04:26:39;16.70;99.90
11599;DHT22;5855;48.840;9.188;2023-07-20T04:29:05;16.70;99.90
11599;DHT22;5855;48.840;9.188;2023-07-20T04:31:32;16.70;99.90
11599;DHT22;5855;48.840;9.188;2023-07-20T04:33:59;16.70;99.90
11599;DHT22;5855;48.840;9.188;2023-07-20T04:36:26;16.70;99.90
11599;DHT22;5855;48.840;9.188;2023-07-20T04:38:53;16.70;99.90
11599;DHT22;5855;48.840;9.188;2023-07-20T04:41:20;16.70;99.90
11599;DHT22;5855;48.840;9.188;2023-07-20T04:43:48;16.80;99.90
11599;DHT22;5855;48.840;9.188;2023-07-20T04:46:16;16.80;99.90
11599;DHT22;5855;48.840;9.188;2023-07-20T04:48:44;16.90;99.90
11599;DHT22;5855;48.840;9.188;2023-07-20T04:51:11;16.90;99.90
11599;DHT22;5855;48.840;9.188;2023-07-20T04:53:38;17.00;99.90
11599;DHT22;5855;48.840;9.188;2023-07-20T04:56:05;17.10;99.90
11599;DHT22;5855;48.840;9.188;2023-07-20T04:58:31;17.20;99.90
11599;DHT22;5855;48.840;9.188;2023-07-20T05:00:59;17.30;99.90
11599;DHT22;5855;48.840;9.188;2023-07-20T05:03:26;17.50;99.90
11599;DHT22;5855;48.840;9.188;2023-07-20T05:05:53;17.50;99.90
11599;DHT22;5855;48.840;9.188;2023-07-20T05:08:20;17.60;99.90
11599;DHT22;5855;48.840;9.188;2023-07-20T05:10:48;17.70;99.90
11599;DHT22;5855;48.840;9.188;2023-07-20T05:13:16;17.80;99.90
11599;DHT22;5855;48.840;9.188;2023-07-20T05:15:43;17.70;99.90
11599;DHT22;5855;48.840;9.188;2023-07-20T05:18:11;17.80;99.90
11599;DHT22;5855;48.840;9.188;2023-07-20T05:20:38;17.90;99.90
11599;DHT22;5855;48.840;9.188;2023-07-20T05:23:05;18.00;99.90
11599;DHT22;5855;48.840;9.188;2023-07-20T05:25:32;18.20;99.90
11599;DHT22;5855;48.840;9.188;2023-07-20T05:27:59;18.30;99.90
11599;DHT22;5855;48.840;9.188;2023-07-20T05:30:26;18.40;99.90
11599;DHT22;5855;48.840;9.188;2023-07-20T05:32:54;18.40;99.90
11599;DHT22;5855;48.840;9.188;2023-07-20T05:35:23;18.50;99.90
11599;DHT22;5855;48.840;9.188;2023-07-20T05:37:50;18.50;99.90
11599;DHT22;5855;48.840;9.188;2023-07-20T05:40:17;18.70;99.90
11599;DHT22;5855;48.840;9.188;2023-07-20T05:42:45;18.70;99.90
11599;DHT22;5855;48.840;9.188;2023-07-20T05:45:14;18.70;99.90
11599;DHT22;5855;48.840;9.188;2023-07-20T05:47:41;18.80;99.90
11599;DHT22;5855;48.840;9.188;2023-07-20T05:50:09;18.90;99.90
11599;DHT22;5855;48.840;9.188;2023-07-20T05:52:37;18.90;99.90
11599;DHT22;5855;48.840;9.188;2023-07-20T05:55:05;19.10;99.90
11599;DHT22;5855;48.840;9.188;2023-07-20T05:57:32;19.20;99.90
11599;DHT22;5855;48.840;9.188;2023-07-20T05:59:59;19.30;99.90
11599;DHT22;5855;48.840;9.188;2023-07-20T06:02:26;19.40;99.90
11599;DHT22;5855;48.840;9.188;2023-07-20T06:04:53;19.40;99.90
11599;DHT22;5855;48.840;9.188;2023-07-20T06:07:20;19.40;99.90
11599;DHT22;5855;48.840;9.188;2023-07-20T06:09:48;19.40;99.90
11599;DHT22;5855;48.840;9.188;2023-07-20T06:12:15;19.40;99.90
11599;DHT22;5855;48.840;9.188;2023-07-20T06:14:42;19.50;99.90
11599;DHT22;5855;48.840;9.188;2023-07-20T06:17:09;19.50;99.90
11599;DHT22;5855;48.840;9.188;2023-07-20T06:19:38;19.60;99.90
11599;DHT22;5855;48.840;9.188;2023-07-20T06:22:05;19.80;99.90
11599;DHT22;5855;48.840;9.188;2023-07-20T06:24:32;19.80;99.90
11599;DHT22;5855;48.840;9.188;2023-07-20T06:27:00;20.00;99.90
11599;DHT22;5855;48.840;9.188;2023-07-20T06:29:28;19.90;99.90
11599;DHT22;5855;48.840;9.188;2023-07-20T06:31:55;19.90;99.90
11599;DHT22;5855;48.840;9.188;2023-07-20T06:34:22;20.00;99.90
11599;DHT22;5855;48.840;9.188;2023-07-20T06:36:49;20.20;99.90
11599;DHT22;5855;48.840;9.188;2023-07-20T06:39:16;20.40;99.90
11599;DHT22;5855;48.840;9.188;2023-07-20T06:41:42;20.30;99.90
11599;DHT22;5855;48.840;9.188;2023-07-20T06:44:10;20.30;99.90
11599;DHT22;5855;48.840;9.188;2023-07-20T06:46:37;20.30;99.90
11599;DHT22;5855;48.840;9.188;2023-07-20T06:49:06;20.30;99.90
11599;DHT22;5855;48.840;9.188;2023-07-20T06:51:33;20.30;99.90
11599;DHT22;5855;48.840;9.188;2023-07-20T06:54:00;20.40;99.90
11599;DHT22;5855;48.840;9.188;2023-07-20T06:56:30;20.60;99.90
11599;DHT22;5855;48.840;9.188;2023-07-20T06:58:56;20.60;99.90
11599;DHT22;5855;48.840;9.188;2023-07-20T07:01:25;20.50;99.90
11599;DHT22;5855;48.840;9.188;2023-07-20T07:03:51;20.70;99.90
11599;DHT22;5855;48.840;9.188;2023-07-20T07:06:18;20.70;99.90
11599;DHT22;5855;48.840;9.188;2023-07-20T07:08:46;20.80;99.90
11599;DHT22;5855;48.840;9.188;2023-07-20T07:11:13;20.70;99.90
11599;DHT22;5855;48.840;9.188;2023-07-20T07:13:40;20.80;99.90
11599;DHT22;5855;48.840;9.188;2023-07-20T07:16:07;20.90;99.90
11599;DHT22;5855;48.840;9.188;2023-07-20T07:18:35;21.00;99.90
11599;DHT22;5855;48.840;9.188;2023-07-20T07:21:02;21.10;99.90
11599;DHT22;5855;48.840;9.188;2023-07-20T07:23:29;21.10;99.90
11599;DHT22;5855;48.840;9.188;2023-07-20T07:25:56;21.30;99.90
11599;DHT22;5855;48.840;9.188;2023-07-20T07:28:23;21.20;99.90
11599;DHT22;5855;48.840;9.188;2023-07-20T07:30:50;21.20;99.90
11599;DHT22;5855;48.840;9.188;2023-07-20T07:33:17;21.30;99.90
11599;DHT22;5855;48.840;9.188;2023-07-20T07:35:46;21.40;99.90
11599;DHT22;5855;48.840;9.188;2023-07-20T07:38:12;21.50;99.90
11599;DHT22;5855;48.840;9.188;2023-07-20T07:40:39;21.60;99.90
11599;DHT22;5855;48.840;9.188;2023-07-20T07:43:07;21.60;99.90
11599;DHT22;5855;48.840;9.188;2023-07-20T07:45:35;21.60;99.90
11599;DHT22;5855;48.840;9.188;2023-07-20T07:48:03;21.70;99.90
11599;DHT22;5855;48.840;9.188;2023-07-20T07:50:30;21.90;99.90
11599;DHT22;5855;48.840;9.188;2023-07-20T07:52:58;21.80;99.90
11599;DHT22;5855;48.840;9.188;2023-07-20T07:55:25;22.00;99.90
11599;DHT22;5855;48.840;9.188;2023-07-20T07:57:53;22.10;99.90
11599;DHT22;5855;48.840;9.188;2023-07-20T08:00:20;22.30;99.90
11599;DHT22;5855;48.840;9.188;2023-07-20T08:02:47;22.40;99.90
11599;DHT22;5855;48.840;9.188;2023-07-20T08:05:14;22.70;99.90
11599;DHT22;5855;48.840;9.188;2023-07-20T08:07:41;22.70;99.90
11599;DHT22;5855;48.840;9.188;2023-07-20T08:10:29;22.90;99.90
11599;DHT22;5855;48.840;9.188;2023-07-20T08:12:56;22.80;99.90
11599;DHT22;5855;48.840;9.188;2023-07-20T08:15:23;22.80;99.90
11599;DHT22;5855;48.840;9.188;2023-07-20T08:17:49;23.00;99.90
11599;DHT22;5855;48.840;9.188;2023-07-20T08:20:18;23.00;99.90
11599;DHT22;5855;48.840;9.188;2023-07-20T08:22:45;22.70;99.90
11599;DHT22;5855;48.840;9.188;2023-07-20T08:25:12;22.50;99.90
11599;DHT22;5855;48.840;9.188;2023-07-20T08:27:40;22.30;99.90
11599;DHT22;5855;48.840;9.188;2023-07-20T08:30:08;22.30;99.90
11599;DHT22;5855;48.840;9.188;2023-07-20T08:32:56;22.40;99.90
11599;DHT22;5855;48.840;9.188;2023-07-20T08:35:23;22.70;99.90
11599;DHT22;5855;48.840;9.188;2023-07-20T08:37:49;22.90;99.90
11599;DHT22;5855;48.840;9.188;2023-07-20T08:40:16;23.20;98.90
11599;DHT22;5855;48.840;9.188;2023-07-20T08:42:45;23.10;99.00
11599;DHT22;5855;48.840;9.188;2023-07-20T08:45:13;23.10;99.20
11599;DHT22;5855;48.840;9.188;2023-07-20T08:47:41;23.00;99.30
11599;DHT22;5855;48.840;9.188;2023-07-20T08:50:09;23.40;98.40
11599;DHT22;5855;48.840;9.188;2023-07-20T08:52:38;23.50;97.60
11599;DHT22;5855;48.840;9.188;2023-07-20T08:55:05;23.60;96.90
11599;DHT22;5855;48.840;9.188;2023-07-20T08:57:33;23.60;97.40
11599;DHT22;5855;48.840;9.188;2023-07-20T09:00:02;23.30;97.60
11599;DHT22;5855;48.840;9.188;2023-07-20T09:02:35;23.10;98.60
11599;DHT22;5855;48.840;9.188;2023-07-20T09:05:04;23.40;97.40
11599;DHT22;5855;48.840;9.188;2023-07-20T09:07:32;23.50;97.20
11599;DHT22;5855;48.840;9.188;2023-07-20T09:09:59;23.70;96.40
11599;DHT22;5855;48.840;9.188;2023-07-20T09:12:31;24.10;95.90
11599;DHT22;5855;48.840;9.188;2023-07-20T09:14:58;23.90;96.30
11599;DHT22;5855;48.840;9.188;2023-07-20T09:17:27;23.80;96.90
11599;DHT22;5855;48.840;9.188;2023-07-20T09:19:54;23.70;96.80
11599;DHT22;5855;48.840;9.188;2023-07-20T09:22:21;23.50;96.90
11599;DHT22;5855;48.840;9.188;2023-07-20T09:24:47;23.20;97.20
11599;DHT22;5855;48.840;9.188;2023-07-20T09:27:15;23.30;97.50
11599;DHT22;5855;48.840;9.188;2023-07-20T09:29:48;23.50;97.20
11599;DHT22;5855;48.840;9.188;2023-07-20T09:32:18;23.70;95.70
11599;DHT22;5855;48.840;9.188;2023-07-20T09:34:49;24.00;95.40
11599;DHT22;5855;48.840;9.188;2023-07-20T09:37:22;23.90;95.40
11599;DHT22;5855;48.840;9.188;2023-07-20T09:39:52;24.00;94.50
11599;DHT22;5855;48.840;9.188;2023-07-20T09:42:21;24.20;93.70
11599;DHT22;5855;48.840;9.188;2023-07-20T09:44:51;24.10;93.00
11599;DHT22;5855;48.840;9.188;2023-07-20T09:47:22;24.40;91.40
11599;DHT22;5855;48.840;9.188;2023-07-20T09:49:58;24.50;91.30
11599;DHT22;5855;48.840;9.188;2023-07-20T09:52:25;24.80;90.50
11599;DHT22;5855;48.840;9.188;2023-07-20T09:54:52;24.90;88.90
11599;DHT22;5855;48.840;9.188;2023-07-20T09:57:21;25.00;87.10
11599;DHT22;5855;48.840;9.188;2023-07-20T09:59:48;25.10;85.20
11599;DHT22;5855;48.840;9.188;2023-07-20T10:02:20;25.30;85.10
11599;DHT22;5855;48.840;9.188;2023-07-20T10:04:52;25.50;83.10
11599;DHT22;5855;48.840;9.188;2023-07-20T10:07:22;25.70;81.90
11599;DHT22;5855;48.840;9.188;2023-07-20T10:09:52;26.10;81.00
11599;DHT22;5855;48.840;9.188;2023-07-20T10:12:22;26.30;79.70
11599;DHT22;5855;48.840;9.188;2023-07-20T10:14:54;26.40;76.30
11599;DHT22;5855;48.840;9.188;2023-07-20T10:17:25;26.20;74.80
11599;DHT22;5855;48.840;9.188;2023-07-20T10:19:56;26.00;74.20
11599;DHT22;5855;48.840;9.188;2023-07-20T10:22:26;26.00;75.90
11599;DHT22;5855;48.840;9.188;2023-07-20T10:24:54;26.40;73.80
11599;DHT22;5855;48.840;9.188;2023-07-20T10:27:24;26.90;71.40
11599;DHT22;5855;48.840;9.188;2023-07-20T10:29:52;26.80;69.40
11599;DHT22;5855;48.840;9.188;2023-07-20T10:32:20;27.00;71.10
11599;DHT22;5855;48.840;9.188;2023-07-20T10:34:50;27.40;69.40
11599;DHT22;5855;48.840;9.188;2023-07-20T10:37:47;27.60;66.20
11599;DHT22;5855;48.840;9.188;2023-07-20T10:40:30;27.60;64.70
11599;DHT22;5855;48.840;9.188;2023-07-20T10:43:05;27.50;61.30
11599;DHT22;5855;48.840;9.188;2023-07-20T10:45:41;27.90;59.90
11599;DHT22;5855;48.840;9.188;2023-07-20T10:48:19;28.10;60.00
11599;DHT22;5855;48.840;9.188;2023-07-20T10:51:10;28.00;60.00
11599;DHT22;5855;48.840;9.188;2023-07-20T10:53:39;28.10;58.30
11599;DHT22;5855;48.840;9.188;2023-07-20T10:56:09;28.20;56.50
11599;DHT22;5855;48.840;9.188;2023-07-20T10:58:38;28.40;55.50
11599;DHT22;5855;48.840;9.188;2023-07-20T11:01:05;27.80;55.90
11599;DHT22;5855;48.840;9.188;2023-07-20T11:03:34;27.90;57.00
11599;DHT22;5855;48.840;9.188;2023-07-20T11:06:29;28.20;56.50
11599;DHT22;5855;48.840;9.188;2023-07-20T11:09:08;28.60;55.20
11599;DHT22;5855;48.840;9.188;2023-07-20T11:11:38;29.00;54.20
11599;DHT22;5855;48.840;9.188;2023-07-20T11:14:07;29.00;51.80
11599;DHT22;5855;48.840;9.188;2023-07-20T11:16:39;29.80;50.80
11599;DHT22;5855;48.840;9.188;2023-07-20T11:19:28;30.00;48.90
11599;DHT22;5855;48.840;9.188;2023-07-20T11:21:57;29.90;49.30
11599;DHT22;5855;48.840;9.188;2023-07-20T11:24:26;30.00;48.80
11599;DHT22;5855;48.840;9.188;2023-07-20T11:26:53;30.80;47.10
11599;DHT22;5855;48.840;9.188;2023-07-20T11:29:22;30.90;45.50
11599;DHT22;5855;48.840;9.188;2023-07-20T11:31:51;30.90;43.60
11599;DHT22;5855;48.840;9.188;2023-07-20T11:34:18;30.30;44.10
11599;DHT22;5855;48.840;9.188;2023-07-20T11:36:46;30.50;44.10
11599;DHT22;5855;48.840;9.188;2023-07-20T11:39:15;31.20;41.30
11599;DHT22;5855;48.840;9.188;2023-07-20T11:41:47;31.60;39.90
11599;DHT22;5855;48.840;9.188;2023-07-20T11:44:15;31.40;39.80
11599;DHT22;5855;48.840;9.188;2023-07-20T11:46:43;31.70;39.10
11599;DHT22;5855;48.840;9.188;2023-07-20T11:49:10;32.50;37.40
11599;DHT22;5855;48.840;9.188;2023-07-20T11:51:39;32.70;36.90
11599;DHT22;5855;48.840;9.188;2023-07-20T11:54:07;33.50;36.80
11599;DHT22;5855;48.840;9.188;2023-07-20T11:56:34;33.30;36.00
11599;DHT22;5855;48.840;9.188;2023-07-20T11:59:13;33.90;33.90
11599;DHT22;5855;48.840;9.188;2023-07-20T12:01:41;35.00;31.90
11599;DHT22;5855;48.840;9.188;2023-07-20T12:04:08;35.00;30.20
11599;DHT22;5855;48.840;9.188;2023-07-20T12:06:35;35.40;29.30
11599;DHT22;5855;48.840;9.188;2023-07-20T12:09:02;35.70;29.10
11599;DHT22;5855;48.840;9.188;2023-07-20T12:11:33;35.30;27.70
11599;DHT22;5855;48.840;9.188;2023-07-20T12:14:00;34.90;27.80
11599;DHT22;5855;48.840;9.188;2023-07-20T12:16:29;35.60;27.20
11599;DHT22;5855;48.840;9.188;2023-07-20T12:22:04;37.00;26.50
11599;DHT22;5855;48.840;9.188;2023-07-20T12:24:32;38.70;24.50
11599;DHT22;5855;48.840;9.188;2023-07-20T12:26:59;39.50;22.80
11599;DHT22;5855;48.840;9.188;2023-07-20T12:29:26;38.90;21.90
11599;DHT22;5855;48.840;9.188;2023-07-20T12:31:54;39.30;20.80
11599;DHT22;5855;48.840;9.188;2023-07-20T12:34:21;38.60;20.20
11599;DHT22;5855;48.840;9.188;2023-07-20T12:36:48;38.80;19.90
11599;DHT22;5855;48.840;9.188;2023-07-20T12:39:15;39.40;20.00
11599;DHT22;5855;48.840;9.188;2023-07-20T12:41:42;38.90;20.20
11599;DHT22;5855;48.840;9.188;2023-07-20T12:44:09;38.80;19.90
11599;DHT22;5855;48.840;9.188;2023-07-20T12:46:36;38.40;19.70
11599;DHT22;5855;48.840;9.188;2023-07-20T12:49:05;38.10;19.50
11599;DHT22;5855;48.840;9.188;2023-07-20T12:51:32;39.10;19.10
11599;DHT22;5855;48.840;9.188;2023-07-20T12:53:59;40.20;17.70
11599;DHT22;5855;48.840;9.188;2023-07-20T12:56:25;40.60;17.10
11599;DHT22;5855;48.840;9.188;2023-07-20T12:58:52;40.00;16.70
11599;DHT22;5855;48.840;9.188;2023-07-20T13:01:19;40.20;16.30
11599;DHT22;5855;48.840;9.188;2023-07-20T13:03:46;40.70;15.90
11599;DHT22;5855;48.840;9.188;2023-07-20T13:09:19;39.20;16.70
11599;DHT22;5855;48.840;9.188;2023-07-20T13:11:45;38.40;16.90
11599;DHT22;5855;48.840;9.188;2023-07-20T13:14:12;38.70;16.40
11599;DHT22;5855;48.840;9.188;2023-07-20T13:16:39;39.30;16.20
11599;DHT22;5855;48.840;9.188;2023-07-20T13:19:06;37.80;16.80
11599;DHT22;5855;48.840;9.188;2023-07-20T13:21:33;38.00;16.60
11599;DHT22;5855;48.840;9.188;2023-07-20T13:24:00;38.60;15.90
11599;DHT22;5855;48.840;9.188;2023-07-20T13:26:29;39.70;15.50
11599;DHT22;5855;48.840;9.188;2023-07-20T13:32:17;40.90;14.10
11599;DHT22;5855;48.840;9.188;2023-07-20T13:34:45;42.10;13.40
11599;DHT22;5855;48.840;9.188;2023-07-20T13:37:12;42.70;12.60
11599;DHT22;5855;48.840;9.188;2023-07-20T13:39:39;42.00;12.70
11599;DHT22;5855;48.840;9.188;2023-07-20T13:42:08;39.00;13.90
11599;DHT22;5855;48.840;9.188;2023-07-20T13:44:36;39.20;14.90
11599;DHT22;5855;48.840;9.188;2023-07-20T13:47:04;39.30;15.20
11599;DHT22;5855;48.840;9.188;2023-07-20T13:49:31;40.50;14.90
11599;DHT22;5855;48.840;9.188;2023-07-20T13:51:58;40.70;14.20
11599;DHT22;5855;48.840;9.188;2023-07-20T13:54:44;40.00;13.80
11599;DHT22;5855;48.840;9.188;2023-07-20T13:57:12;39.60;13.80
11599;DHT22;5855;48.840;9.188;2023-07-20T13:59:40;39.40;14.30
11599;DHT22;5855;48.840;9.188;2023-07-20T14:02:07;40.00;14.00
11599;DHT22;5855;48.840;9.188;2023-07-20T14:04:34;40.70;13.00
11599;DHT22;5855;48.840;9.188;2023-07-20T14:07:01;41.10;13.30
11599;DHT22;5855;48.840;9.188;2023-07-20T14:09:28;40.90;13.30
11599;DHT22;5855;48.840;9.188;2023-07-20T14:11:55;40.70;12.90
11599;DHT22;5855;48.840;9.188;2023-07-20T14:14:23;40.20;13.90
11599;DHT22;5855;48.840;9.188;2023-07-20T14:16:50;40.90;13.20
11599;DHT22;5855;48.840;9.188;2023-07-20T14:19:17;41.60;12.30
11599;DHT22;5855;48.840;9.188;2023-07-20T14:21:43;40.90;12.20
11599;DHT22;5855;48.840;9.188;2023-07-20T14:24:11;39.90;12.60
11599;DHT22;5855;48.840;9.188;2023-07-20T14:26:37;40.00;12.30
11599;DHT22;5855;48.840;9.188;2023-07-20T14:29:04;40.10;12.70
11599;DHT22;5855;48.840;9.188;2023-07-20T14:31:32;39.10;13.30
11599;DHT22;5855;48.840;9.188;2023-07-20T14:34:01;39.70;12.80
11599;DHT22;5855;48.840;9.188;2023-07-20T14:36:28;40.50;12.40
11599;DHT22;5855;48.840;9.188;2023-07-20T14:38:54;42.00;11.40
11599;DHT22;5855;48.840;9.188;2023-07-20T14:41:23;41.80;10.40
11599;DHT22;5855;48.840;9.188;2023-07-20T14:43:50;41.90;10.80
11599;DHT22;5855;48.840;9.188;2023-07-20T14:46:16;43.10;10.30
11599;DHT22;5855;48.840;9.188;2023-07-20T14:48:45;43.10;9.60
11599;DHT22;5855;48.840;9.188;2023-07-20T14:51:12;43.00;9.70
11599;DHT22;5855;48.840;9.188;2023-07-20T14:53:39;41.70;10.10
11599;DHT22;5855;48.840;9.188;2023-07-20T14:56:06;41.80;10.00
11599;DHT22;5855;48.840;9.188;2023-07-20T14:58:33;41.50;10.20
11599;DHT22;5855;48.840;9.188;2023-07-20T15:01:00;41.50;10.30
11599;DHT22;5855;48.840;9.188;2023-07-20T15:03:29;41.60;10.40
11599;DHT22;5855;48.840;9.188;2023-07-20T15:05:58;42.30;9.80
11599;DHT22;5855;48.840;9.188;2023-07-20T15:08:24;41.70;10.10
11599;DHT22;5855;48.840;9.188;2023-07-20T15:10:51;41.10;10.40
11599;DHT22;5855;48.840;9.188;2023-07-20T15:13:18;40.90;11.00
11599;DHT22;5855;48.840;9.188;2023-07-20T15:15:45;39.10;11.40
11599;DHT22;5855;48.840;9.188;2023-07-20T15:18:12;39.50;11.50
11599;DHT22;5855;48.840;9.188;2023-07-20T15:20:39;39.10;11.60
11599;DHT22;5855;48.840;9.188;2023-07-20T15:23:07;39.60;10.90
11599;DHT22;5855;48.840;9.188;2023-07-20T15:25:34;39.70;11.20
11599;DHT22;5855;48.840;9.188;2023-07-20T15:28:00;40.20;10.70
11599;DHT22;5855;48.840;9.188;2023-07-20T15:30:27;39.70;11.20
11599;DHT22;5855;48.840;9.188;2023-07-20T15:32:55;39.60;11.50
11599;DHT22;5855;48.840;9.188;2023-07-20T15:35:23;38.70;11.70
11599;DHT22;5855;48.840;9.188;2023-07-20T15:37:50;39.00;11.60
11599;DHT22;5855;48.840;9.188;2023-07-20T15:40:18;38.50;12.20
11599;DHT22;5855;48.840;9.188;2023-07-20T15:42:45;39.20;11.80
11599;DHT22;5855;48.840;9.188;2023-07-20T15:45:12;38.80;12.10
11599;DHT22;5855;48.840;9.188;2023-07-20T15:47:39;37.50;12.70
11599;DHT22;5855;48.840;9.188;2023-07-20T15:50:06;37.50;12.30
11599;DHT22;5855;48.840;9.188;2023-07-20T15:52:33;36.30;13.20
11599;DHT22;5855;48.840;9.188;2023-07-20T15:55:00;37.40;12.90
11599;DHT22;5855;48.840;9.188;2023-07-20T15:57:29;37.80;12.70
11599;DHT22;5855;48.840;9.188;2023-07-20T15:59:56;38.20;12.40
11599;DHT22;5855;48.840;9.188;2023-07-20T16:02:23;38.40;12.60
11599;DHT22;5855;48.840;9.188;2023-07-20T16:04:50;37.80;12.70
11599;DHT22;5855;48.840;9.188;2023-07-20T16:07:17;37.40;13.10
11599;DHT22;5855;48.840;9.188;2023-07-20T16:09:44;37.70;13.00